createdAt,value
2022-12-31T00:01:35.219Z,96248.75
2022-12-31T00:03:38.753Z,96259.25
2022-12-31T00:05:40.402Z,96252.91
2022-12-31T00:09:42.674Z,96266.69
2022-12-31T00:11:44.967Z,96271.44
2022-12-31T00:13:47.089Z,96254.22
2022-12-31T00:15:48.702Z,96286.81
2022-12-31T00:17:50.425Z,96267.84
2022-12-31T00:19:52.126Z,96275.03
2022-12-31T00:21:53.838Z,96277.31
2022-12-31T00:23:55.942Z,96279.47
2022-12-31T00:26:03.623Z,96287.50
2022-12-31T00:28:05.628Z,96279.91
2022-12-31T00:30:08.080Z,96289.22
2022-12-31T00:32:10.715Z,96283.03
2022-12-31T00:34:12.246Z,96293.66
2022-12-31T00:36:16.301Z,96286.72
2022-12-31T00:38:18.244Z,96278.91
2022-12-31T00:40:19.976Z,96277.97
2022-12-31T00:42:21.734Z,96271.97
2022-12-31T00:44:23.463Z,96273.19
2022-12-31T00:46:25.794Z,96280.75
2022-12-31T00:48:28.172Z,96277.19
2022-12-31T00:50:29.897Z,96278.28
2022-12-31T00:52:31.862Z,96277.75
2022-12-31T00:54:34.128Z,96281.41
2022-12-31T00:56:36.208Z,96289.88
2022-12-31T00:58:38.337Z,96279.59
2022-12-31T01:00:40.666Z,96281.63
2022-12-31T01:02:42.448Z,96281.63
2022-12-31T01:04:44.571Z,96289.53
2022-12-31T01:06:46.916Z,96294.09
2022-12-31T01:08:49.571Z,96285.97
2022-12-31T01:11:09.825Z,96295.19
2022-12-31T01:13:11.775Z,96294.75
2022-12-31T01:15:13.711Z,96293.03
2022-12-31T01:17:17.170Z,96295.59
2022-12-31T01:19:25.384Z,96304.31
2022-12-31T01:21:27.888Z,96300.38
2022-12-31T01:23:30.573Z,96303.44
2022-12-31T01:25:36.272Z,96309.50
2022-12-31T01:27:38.361Z,96320.22
2022-12-31T01:29:40.135Z,96312.53
2022-12-31T01:31:42.897Z,96310.91
2022-12-31T01:33:45.129Z,96316.66
2022-12-31T01:35:47.343Z,96323.25
2022-12-31T01:37:50.844Z,96314.50
2022-12-31T01:39:52.714Z,96330.84
2022-12-31T01:41:57.018Z,96322.41
2022-12-31T01:44:23.332Z,96335.00
2022-12-31T01:46:38.890Z,96332.06
2022-12-31T01:48:41.218Z,96323.84
2022-12-31T01:50:44.238Z,96327.41
2022-12-31T01:52:50.003Z,96325.44
2022-12-31T01:55:00.219Z,96325.34
2022-12-31T01:57:05.856Z,96344.84
2022-12-31T01:59:10.623Z,96330.88
2022-12-31T02:01:19.573Z,96348.44
2022-12-31T02:03:27.052Z,96348.13
2022-12-31T02:05:48.913Z,96355.91
2022-12-31T02:07:53.334Z,96342.28
2022-12-31T02:09:55.075Z,96342.03
2022-12-31T02:11:56.939Z,96342.69
2022-12-31T02:14:04.378Z,96361.13
2022-12-31T02:16:37.948Z,96362.66
2022-12-31T02:18:52.866Z,96343.34
2022-12-31T02:21:12.905Z,96354.84
2022-12-31T02:23:39.189Z,96370.44
2022-12-31T02:26:11.491Z,96358.63
2022-12-31T02:28:44.025Z,96372.75
2022-12-31T02:30:48.733Z,96351.28
2022-12-31T02:33:14.991Z,96358.84
2022-12-31T02:35:30.719Z,96356.47
2022-12-31T02:37:35.582Z,96349.22
2022-12-31T02:39:38.401Z,96359.97
2022-12-31T02:41:51.821Z,96341.06
2022-12-31T02:43:53.411Z,96356.25
2022-12-31T02:46:30.102Z,96365.59
2022-12-31T02:49:24.548Z,96351.91
2022-12-31T02:51:28.856Z,96362.97
2022-12-31T02:53:49.179Z,96364.84
2022-12-31T02:55:59.922Z,96354.84
2022-12-31T02:58:50.753Z,96349.75
2022-12-31T03:01:17.191Z,96370.59
2022-12-31T03:03:20.162Z,96361.47
2022-12-31T03:05:26.748Z,96353.34
2022-12-31T03:07:31.930Z,96358.53
2022-12-31T03:09:34.673Z,96351.50
2022-12-31T03:11:54.700Z,96347.91
2022-12-31T03:13:56.711Z,96364.50
2022-12-31T03:15:58.270Z,96383.38
2022-12-31T03:18:02.753Z,96365.03
2022-12-31T03:20:23.495Z,96354.19
2022-12-31T03:22:28.857Z,96373.75
2022-12-31T03:24:49.698Z,96355.50
2022-12-31T03:26:51.477Z,96354.41
2022-12-31T03:28:53.144Z,96368.19
2022-12-31T03:30:58.600Z,96377.31
2022-12-31T03:33:01.196Z,96370.13
2022-12-31T03:35:03.317Z,96373.63
2022-12-31T03:37:04.915Z,96366.91
2022-12-31T03:39:06.503Z,96365.81
2022-12-31T03:41:11.153Z,96368.75
2022-12-31T03:43:12.919Z,96370.47
2022-12-31T03:45:14.972Z,96377.84
2022-12-31T03:47:16.765Z,96364.28
2022-12-31T03:49:18.537Z,96371.75
2022-12-31T03:51:20.234Z,96388.47
2022-12-31T03:53:22.236Z,96374.38
2022-12-31T03:55:24.345Z,96385.75
2022-12-31T03:57:25.961Z,96378.59
2022-12-31T03:59:27.634Z,96390.97
2022-12-31T04:01:29.922Z,96391.19
2022-12-31T04:03:31.663Z,96399.00
2022-12-31T04:05:33.825Z,96404.53
2022-12-31T04:07:35.740Z,96400.53
2022-12-31T04:09:37.404Z,96394.53
2022-12-31T04:11:39.010Z,96417.66
2022-12-31T04:13:40.534Z,96395.41
2022-12-31T04:15:42.158Z,96390.97
2022-12-31T04:17:43.868Z,96402.81
2022-12-31T04:19:45.515Z,96392.03
2022-12-31T04:21:47.213Z,96427.75
2022-12-31T04:23:49.265Z,96416.38
2022-12-31T04:25:51.152Z,96416.16
2022-12-31T04:27:52.746Z,96416.69
2022-12-31T04:29:54.252Z,96418.97
2022-12-31T04:31:55.849Z,96416.16
2022-12-31T04:33:57.664Z,96423.66
2022-12-31T04:36:07.731Z,96415.06
2022-12-31T04:38:09.698Z,96418.53
2022-12-31T04:40:11.636Z,96416.69
2022-12-31T04:42:13.261Z,96421.88
2022-12-31T04:44:15.346Z,96408.22
2022-12-31T04:46:19.592Z,96413.53
2022-12-31T04:48:21.445Z,96411.16
2022-12-31T04:50:24.815Z,96415.59
2022-12-31T04:52:26.381Z,96422.75
2022-12-31T04:54:27.906Z,96417.13
2022-12-31T04:56:30.088Z,96432.28
2022-12-31T04:58:31.942Z,96423.50
2022-12-31T05:00:33.554Z,96427.31
2022-12-31T05:02:35.386Z,96431.47
2022-12-31T05:04:37.197Z,96417.31
2022-12-31T05:06:38.856Z,96419.50
2022-12-31T05:08:41.794Z,96426.38
2022-12-31T05:10:45.928Z,96435.69
2022-12-31T05:12:47.776Z,96439.47
2022-12-31T05:14:49.436Z,96425.16
2022-12-31T05:16:51.166Z,96433.63
2022-12-31T05:18:52.769Z,96418.22
2022-12-31T05:20:55.776Z,96430.91
2022-12-31T05:22:58.585Z,96432.31
2022-12-31T05:25:01.173Z,96421.25
2022-12-31T05:27:03.139Z,96430.25
2022-12-31T05:29:04.771Z,96413.94
2022-12-31T05:31:06.429Z,96440.31
2022-12-31T05:33:08.436Z,96418.06
2022-12-31T05:35:10.252Z,96420.66
2022-12-31T05:37:12.024Z,96417.84
2022-12-31T05:39:13.668Z,96410.22
2022-12-31T05:41:15.288Z,96421.44
2022-12-31T05:43:16.829Z,96428.38
2022-12-31T05:45:20.417Z,96419.28
2022-12-31T05:47:25.173Z,96415.88
2022-12-31T05:49:26.750Z,96424.69
2022-12-31T05:51:28.372Z,96444.44
2022-12-31T05:53:29.903Z,96418.72
2022-12-31T05:55:31.568Z,96411.97
2022-12-31T05:57:33.147Z,96423.47
2022-12-31T05:59:35.165Z,96413.91
2022-12-31T06:01:36.701Z,96427.72
2022-12-31T06:03:38.998Z,96431.19
2022-12-31T06:05:43.707Z,96417.28
2022-12-31T06:07:45.395Z,96389.69
2022-12-31T06:09:46.906Z,96415.53
2022-12-31T06:11:48.573Z,96426.28
2022-12-31T06:13:50.169Z,96440.19
2022-12-31T06:15:51.745Z,96416.03
2022-12-31T06:17:53.520Z,96424.13
2022-12-31T06:19:55.078Z,96418.47
2022-12-31T06:21:57.041Z,96420.00
2022-12-31T06:23:58.894Z,96414.47
2022-12-31T06:26:05.019Z,96449.84
2022-12-31T06:28:06.620Z,96427.03
2022-12-31T06:30:09.001Z,96439.75
2022-12-31T06:32:10.459Z,96438.97
2022-12-31T06:34:12.556Z,96435.97
2022-12-31T06:36:15.805Z,96449.41
2022-12-31T06:38:17.765Z,96420.31
2022-12-31T06:40:19.414Z,96464.94
2022-12-31T06:42:20.968Z,96452.88
2022-12-31T06:44:22.828Z,96468.13
2022-12-31T06:46:24.408Z,96466.97
2022-12-31T06:48:26.247Z,96451.13
2022-12-31T06:50:28.028Z,96461.53
2022-12-31T06:52:29.588Z,96478.91
2022-12-31T06:54:31.692Z,96473.28
2022-12-31T06:56:35.513Z,96481.63
2022-12-31T06:58:37.732Z,96477.06
2022-12-31T07:00:50.447Z,96488.03
2022-12-31T07:03:15.699Z,96476.59
2022-12-31T07:05:46.433Z,96490.97
2022-12-31T07:07:56.810Z,96491.28
2022-12-31T07:10:45.951Z,96495.13
2022-12-31T07:13:19.165Z,96490.00
2022-12-31T07:15:43.675Z,96494.44
2022-12-31T07:17:52.563Z,96488.63
2022-12-31T07:20:03.332Z,96496.97
2022-12-31T07:22:09.873Z,96510.56
2022-12-31T07:24:12.866Z,96500.75
2022-12-31T07:26:33.610Z,96500.00
2022-12-31T07:28:53.156Z,96511.50
2022-12-31T07:31:07.454Z,96468.16
2022-12-31T07:33:21.736Z,96506.44
2022-12-31T07:35:44.658Z,96512.63
2022-12-31T07:37:58.659Z,96517.72
2022-12-31T07:40:15.474Z,96515.47
2022-12-31T07:42:41.439Z,96510.44
2022-12-31T07:45:04.016Z,96498.94
2022-12-31T07:47:18.583Z,96511.09
2022-12-31T07:49:20.472Z,96528.22
2022-12-31T07:51:22.381Z,96510.84
2022-12-31T07:53:25.610Z,96504.03
2022-12-31T07:55:27.221Z,96526.94
2022-12-31T07:57:41.035Z,96527.38
2022-12-31T08:00:01.550Z,96544.22
2022-12-31T08:02:24.703Z,96529.97
2022-12-31T08:04:44.668Z,96549.06
2022-12-31T08:07:01.929Z,96536.69
2022-12-31T08:09:15.124Z,96541.50
2022-12-31T08:11:47.201Z,96540.50
2022-12-31T08:13:49.138Z,96535.63
2022-12-31T08:15:51.496Z,96536.63
2022-12-31T08:17:53.096Z,96552.66
2022-12-31T08:19:55.131Z,96544.50
2022-12-31T08:22:13.221Z,96550.22
2022-12-31T08:24:51.023Z,96564.50
2022-12-31T08:27:20.241Z,96577.47
2022-12-31T08:29:29.348Z,96573.00
2022-12-31T08:31:41.142Z,96628.97
2022-12-31T08:34:25.231Z,96571.81
2022-12-31T08:36:32.024Z,96576.59
2022-12-31T08:38:54.919Z,96589.63
2022-12-31T08:41:05.761Z,96593.91
2022-12-31T08:43:31.125Z,96577.22
2022-12-31T08:45:43.062Z,96588.34
2022-12-31T08:48:00.028Z,96581.81
2022-12-31T08:50:02.311Z,96595.84
2022-12-31T08:52:04.171Z,96606.59
2022-12-31T08:54:06.118Z,96603.88
2022-12-31T08:56:21.203Z,96601.16
2022-12-31T08:58:59.148Z,96609.09
2022-12-31T09:01:01.427Z,96612.25
2022-12-31T09:03:26.080Z,96623.78
2022-12-31T09:06:02.601Z,96627.91
2022-12-31T09:08:27.667Z,96617.13
2022-12-31T09:11:04.326Z,96610.69
2022-12-31T09:13:42.180Z,96602.97
2022-12-31T09:16:01.448Z,96596.91
2022-12-31T09:18:03.440Z,96591.66
2022-12-31T09:20:06.246Z,96610.09
2022-12-31T09:22:10.310Z,96598.81
2022-12-31T09:24:16.069Z,96609.59
2022-12-31T09:26:49.499Z,96616.53
2022-12-31T09:29:09.714Z,96611.34
2022-12-31T09:31:19.067Z,96605.81
2022-12-31T09:33:58.976Z,96610.22
2022-12-31T09:36:06.215Z,96591.44
2022-12-31T09:38:22.551Z,96616.13
2022-12-31T09:40:50.664Z,96618.63
2022-12-31T09:43:16.802Z,96625.13
2022-12-31T09:45:37.030Z,96622.13
2022-12-31T09:48:14.527Z,96602.38
2022-12-31T09:51:11.499Z,96620.97
2022-12-31T09:53:52.200Z,96607.81
2022-12-31T09:56:15.763Z,96620.75
2022-12-31T09:58:50.971Z,96610.22
2022-12-31T10:01:12.588Z,96613.69
2022-12-31T10:03:31.939Z,96610.72
2022-12-31T10:05:55.242Z,96617.09
2022-12-31T10:08:28.586Z,96618.38
2022-12-31T10:10:33.346Z,96619.34
2022-12-31T10:12:53.847Z,96624.00
2022-12-31T10:15:01.308Z,96622.78
2022-12-31T10:17:12.253Z,96610.81
2022-12-31T10:19:44.012Z,96607.44
2022-12-31T10:22:16.491Z,96625.13
2022-12-31T10:24:36.788Z,96616.53
2022-12-31T10:27:04.469Z,96624.53
2022-12-31T10:29:14.907Z,96614.81
2022-12-31T10:31:35.079Z,96610.28
2022-12-31T10:33:45.224Z,96618.13
2022-12-31T10:36:18.075Z,96615.00
2022-12-31T10:38:22.711Z,96616.56
2022-12-31T10:40:44.701Z,96615.44
2022-12-31T10:43:05.323Z,96625.88
2022-12-31T10:45:44.820Z,96631.91
2022-12-31T10:48:24.150Z,96640.28
2022-12-31T10:50:57.212Z,96646.41
2022-12-31T10:53:18.182Z,96621.72
2022-12-31T10:55:41.483Z,96645.28
2022-12-31T10:57:51.743Z,96651.50
2022-12-31T11:00:03.749Z,96639.44
2022-12-31T11:02:36.682Z,96645.25
2022-12-31T11:05:04.224Z,96632.72
2022-12-31T11:07:23.608Z,96640.97
2022-12-31T11:09:42.400Z,96640.06
2022-12-31T11:11:58.472Z,96640.31
2022-12-31T11:14:28.899Z,96645.78
2022-12-31T11:16:54.018Z,96650.47
2022-12-31T11:19:01.886Z,96638.47
2022-12-31T11:21:30.152Z,96640.72
2022-12-31T11:24:09.945Z,96648.97
2022-12-31T11:26:12.105Z,96638.59
2022-12-31T11:28:20.925Z,96635.94
2022-12-31T11:30:36.112Z,96639.00
2022-12-31T11:32:52.258Z,96646.81
2022-12-31T11:34:59.992Z,96638.22
2022-12-31T11:37:30.466Z,96634.22
2022-12-31T11:40:04.451Z,96643.47
2022-12-31T11:42:39.812Z,96637.84
2022-12-31T11:45:01.080Z,96649.41
2022-12-31T11:47:15.869Z,96649.06
2022-12-31T11:49:32.965Z,96641.28
2022-12-31T11:51:56.913Z,96640.38
2022-12-31T11:54:17.326Z,96649.09
2022-12-31T11:56:23.181Z,96641.66
2022-12-31T11:58:28.621Z,96658.59
2022-12-31T12:00:31.993Z,96648.31
2022-12-31T12:02:37.264Z,96658.78
2022-12-31T12:04:39.191Z,96650.75
2022-12-31T12:06:43.510Z,96655.63
2022-12-31T12:08:46.203Z,96647.00
2022-12-31T12:10:52.438Z,96650.78
2022-12-31T12:12:56.522Z,96647.75
2022-12-31T12:14:58.063Z,96644.78
2022-12-31T12:17:05.384Z,96647.69
2022-12-31T12:19:17.833Z,96636.94
2022-12-31T12:21:25.146Z,96644.78
2022-12-31T12:23:27.642Z,96636.44
2022-12-31T12:25:43.219Z,96627.56
2022-12-31T12:27:44.939Z,96631.34
2022-12-31T12:29:47.358Z,96612.25
2022-12-31T12:32:04.635Z,96624.22
2022-12-31T12:34:22.288Z,96629.06
2022-12-31T12:36:24.328Z,96625.16
2022-12-31T12:38:25.877Z,96620.44
2022-12-31T12:40:33.912Z,96622.72
2022-12-31T12:42:36.178Z,96638.66
2022-12-31T12:44:38.699Z,96631.06
2022-12-31T12:46:52.070Z,96635.31
2022-12-31T12:48:56.693Z,96642.28
2022-12-31T12:51:00.261Z,96624.34
2022-12-31T12:53:41.965Z,96632.13
2022-12-31T12:55:46.268Z,96621.50
2022-12-31T12:58:19.343Z,96628.28
2022-12-31T13:00:29.803Z,96623.44
2022-12-31T13:02:55.381Z,96626.50
2022-12-31T13:05:28.772Z,96617.81
2022-12-31T13:07:44.664Z,96616.03
2022-12-31T13:09:55.209Z,96618.47
2022-12-31T13:12:07.799Z,96610.84
2022-12-31T13:14:29.691Z,96622.06
2022-12-31T13:16:51.061Z,96616.19
2022-12-31T13:19:11.289Z,96613.47
2022-12-31T13:21:31.544Z,96616.97
2022-12-31T13:23:53.548Z,96617.09
2022-12-31T13:26:08.072Z,96619.50
2022-12-31T13:28:11.863Z,96609.94
2022-12-31T13:30:27.966Z,96629.94
2022-12-31T13:32:42.699Z,96617.63
2022-12-31T13:34:48.238Z,96622.03
2022-12-31T13:36:52.860Z,96622.47
2022-12-31T13:38:57.937Z,96624.28
2022-12-31T13:41:08.975Z,96632.19
2022-12-31T13:43:51.106Z,96628.72
2022-12-31T13:46:34.701Z,96612.47
2022-12-31T13:48:44.458Z,96598.38
2022-12-31T13:51:03.140Z,96616.41
2022-12-31T13:53:35.640Z,96618.84
2022-12-31T13:55:46.256Z,96603.34
2022-12-31T13:58:16.841Z,96605.91
2022-12-31T14:00:24.379Z,96609.88
2022-12-31T14:02:38.760Z,96614.56
2022-12-31T14:04:58.424Z,96600.63
2022-12-31T14:07:20.473Z,96604.00
2022-12-31T14:09:27.671Z,96605.50
2022-12-31T14:12:04.516Z,96612.06
2022-12-31T14:14:18.198Z,96618.09
2022-12-31T14:16:24.690Z,96622.13
2022-12-31T14:18:40.489Z,96624.44
2022-12-31T14:20:57.858Z,96613.47
2022-12-31T14:23:39.937Z,96614.84
2022-12-31T14:25:47.765Z,96621.81
2022-12-31T14:27:53.291Z,96614.19
2022-12-31T14:29:59.384Z,96615.69
2022-12-31T14:32:01.315Z,96611.22
2022-12-31T14:34:47.701Z,96613.78
2022-12-31T14:37:03.326Z,96614.56
2022-12-31T14:39:25.005Z,96618.16
2022-12-31T14:41:53.135Z,96620.91
2022-12-31T14:44:07.287Z,96621.53
2022-12-31T14:46:33.447Z,96625.34
2022-12-31T14:49:00.462Z,96633.69
2022-12-31T14:51:03.979Z,96635.03
2022-12-31T14:53:06.195Z,96653.50
2022-12-31T14:55:08.731Z,96659.09
2022-12-31T14:57:16.418Z,96651.09
2022-12-31T14:59:29.759Z,96647.31
2022-12-31T15:01:31.383Z,96649.06
2022-12-31T15:03:42.981Z,96653.50
2022-12-31T15:06:06.678Z,96642.28
2022-12-31T15:08:26.023Z,96650.16
2022-12-31T15:10:40.255Z,96633.44
2022-12-31T15:12:50.826Z,96649.03
2022-12-31T15:15:19.977Z,96658.47
2022-12-31T15:17:34.779Z,96661.44
2022-12-31T15:20:03.345Z,96656.19
2022-12-31T15:22:23.660Z,96653.63
2022-12-31T15:24:27.232Z,96657.25
2022-12-31T15:26:32.135Z,96657.47
2022-12-31T15:28:35.173Z,96645.38
2022-12-31T15:30:47.447Z,96644.75
2022-12-31T15:32:49.200Z,96674.44
2022-12-31T15:35:02.604Z,96652.75
2022-12-31T15:37:07.263Z,96650.34
2022-12-31T15:39:11.824Z,96655.53
2022-12-31T15:41:24.908Z,96652.72
2022-12-31T15:43:48.412Z,96664.91
2022-12-31T15:45:52.219Z,96668.13
2022-12-31T15:47:58.152Z,96664.09
2022-12-31T15:50:04.073Z,96664.53
2022-12-31T15:52:18.138Z,96657.94
2022-12-31T15:54:29.943Z,96662.16
2022-12-31T15:56:37.468Z,96663.88
2022-12-31T15:58:39.904Z,96675.41
2022-12-31T16:01:04.016Z,96675.28
2022-12-31T16:03:19.879Z,96671.84
2022-12-31T16:05:27.043Z,96657.03
2022-12-31T16:07:29.537Z,96663.41
2022-12-31T16:09:34.687Z,96659.66
2022-12-31T16:11:41.528Z,96656.66
2022-12-31T16:13:47.103Z,96652.00
2022-12-31T16:15:53.060Z,96671.59
2022-12-31T16:18:22.522Z,96666.41
2022-12-31T16:20:27.342Z,96673.38
2022-12-31T16:22:39.507Z,96671.34
2022-12-31T16:25:02.890Z,96675.41
2022-12-31T16:27:07.715Z,96674.63
2022-12-31T16:29:18.489Z,96684.16
2022-12-31T16:31:21.038Z,96679.63
2022-12-31T16:33:22.785Z,96689.16
2022-12-31T16:35:28.896Z,96681.75
2022-12-31T16:37:30.798Z,96676.13
2022-12-31T16:39:39.180Z,96669.91
2022-12-31T16:41:42.054Z,96673.84
2022-12-31T16:43:44.526Z,96676.59
2022-12-31T16:45:46.161Z,96670.94
2022-12-31T16:47:48.387Z,96671.59
2022-12-31T16:50:03.872Z,96672.88
2022-12-31T16:52:09.325Z,96660.91
2022-12-31T16:54:30.437Z,96662.47
2022-12-31T16:56:37.197Z,96665.94
2022-12-31T16:58:45.269Z,96662.69
2022-12-31T17:00:49.673Z,96676.38
2022-12-31T17:03:08.707Z,96679.75
2022-12-31T17:05:25.121Z,96673.34
2022-12-31T17:07:26.665Z,96677.81
2022-12-31T17:09:36.673Z,96681.38
2022-12-31T17:12:07.649Z,96676.06
2022-12-31T17:14:09.290Z,96677.34
2022-12-31T17:16:11.277Z,96687.69
2022-12-31T17:18:37.804Z,96692.38
2022-12-31T17:20:39.415Z,96692.81
2022-12-31T17:22:43.358Z,96678.88
2022-12-31T17:24:47.994Z,96690.84
2022-12-31T17:26:51.661Z,96686.59
2022-12-31T17:28:55.578Z,96697.13
2022-12-31T17:31:02.474Z,96690.84
2022-12-31T17:33:26.639Z,96695.53
2022-12-31T17:35:36.826Z,96693.25
2022-12-31T17:37:38.390Z,96695.09
2022-12-31T17:39:43.430Z,96683.56
2022-12-31T17:41:46.367Z,96692.69
2022-12-31T17:43:53.136Z,96697.59
2022-12-31T17:45:54.829Z,96691.28
2022-12-31T17:47:59.594Z,96688.66
2022-12-31T17:50:08.692Z,96690.41
2022-12-31T17:52:15.278Z,96685.94
2022-12-31T17:54:17.983Z,96697.59
2022-12-31T17:56:20.628Z,96702.91
2022-12-31T17:58:31.996Z,96697.16
2022-12-31T18:00:36.589Z,96699.66
2022-12-31T18:02:38.332Z,96695.94
2022-12-31T18:04:39.944Z,96696.19
2022-12-31T18:06:42.285Z,96714.44
2022-12-31T18:08:43.936Z,96698.47
2022-12-31T18:10:45.642Z,96702.47
2022-12-31T18:12:49.328Z,96684.31
2022-12-31T18:14:50.892Z,96695.41
2022-12-31T18:16:52.940Z,96700.19
2022-12-31T18:18:57.499Z,96703.47
2022-12-31T18:21:03.052Z,96696.59
2022-12-31T18:23:12.995Z,96702.56
2022-12-31T18:25:21.350Z,96705.63
2022-12-31T18:27:25.738Z,96709.66
2022-12-31T18:29:27.696Z,96709.75
2022-12-31T18:31:31.029Z,96719.88
2022-12-31T18:33:33.442Z,96712.25
2022-12-31T18:37:57.922Z,96702.88
2022-12-31T18:40:00.219Z,96709.53
2022-12-31T18:42:05.337Z,96715.28
2022-12-31T18:44:11.003Z,96721.06
2022-12-31T18:46:14.953Z,96716.25
2022-12-31T18:48:18.570Z,96711.47
2022-12-31T18:50:22.998Z,96723.34
2022-12-31T18:52:24.992Z,96714.72
2022-12-31T18:54:26.566Z,96729.88
2022-12-31T18:56:28.365Z,96715.25
2022-12-31T18:58:30.541Z,96721.97
2022-12-31T19:00:33.797Z,96726.00
2022-12-31T19:02:36.375Z,96728.66
2022-12-31T19:04:38.889Z,96724.97
2022-12-31T19:06:41.280Z,96732.41
2022-12-31T19:08:43.978Z,96723.25
2022-12-31T19:10:47.194Z,96735.84
2022-12-31T19:12:49.194Z,96729.44
2022-12-31T19:14:50.721Z,96729.22
2022-12-31T19:16:54.384Z,96735.63
2022-12-31T19:18:56.052Z,96734.66
2022-12-31T19:20:57.628Z,96740.97
2022-12-31T19:22:59.744Z,96739.44
2022-12-31T19:25:01.368Z,96740.09
2022-12-31T19:27:02.942Z,96744.31
2022-12-31T19:29:04.517Z,96740.72
2022-12-31T19:31:06.113Z,96740.41
2022-12-31T19:33:07.726Z,96742.91
2022-12-31T19:35:12.952Z,96747.28
2022-12-31T19:37:15.429Z,96741.84
2022-12-31T19:39:20.098Z,96747.41
2022-12-31T19:41:21.728Z,96743.25
2022-12-31T19:43:23.615Z,96735.88
2022-12-31T19:45:27.676Z,96733.16
2022-12-31T19:47:29.198Z,96739.47
2022-12-31T19:49:30.861Z,96740.41
2022-12-31T19:51:32.449Z,96750.00
2022-12-31T19:53:33.986Z,96745.97
2022-12-31T19:55:35.624Z,96742.28
2022-12-31T19:57:37.836Z,96753.78
2022-12-31T19:59:39.515Z,96742.41
2022-12-31T20:01:41.248Z,96736.53
2022-12-31T20:03:43.190Z,96738.03
2022-12-31T20:05:46.082Z,96740.97
2022-12-31T20:07:47.794Z,96739.13
2022-12-31T20:09:50.130Z,96742.41
2022-12-31T20:11:51.846Z,96743.25
2022-12-31T20:13:53.868Z,96740.78
2022-12-31T20:15:55.580Z,96735.53
2022-12-31T20:17:58.373Z,96735.53
2022-12-31T20:19:59.981Z,96737.59
2022-12-31T20:22:01.571Z,96744.25
2022-12-31T20:24:03.196Z,96745.84
2022-12-31T20:26:05.227Z,96737.81
2022-12-31T20:28:06.783Z,96732.16
2022-12-31T20:30:09.939Z,96734.31
2022-12-31T20:32:11.475Z,96740.63
2022-12-31T20:34:13.287Z,96729.97
2022-12-31T20:36:16.729Z,96742.19
2022-12-31T20:38:18.398Z,96735.84
2022-12-31T20:40:20.151Z,96741.53
2022-12-31T20:42:21.862Z,96748.69
2022-12-31T20:44:23.436Z,96741.06
2022-12-31T20:46:27.843Z,96748.25
2022-12-31T20:48:31.307Z,96740.19
2022-12-31T20:50:33.018Z,96742.06
2022-12-31T20:52:34.588Z,96741.53
2022-12-31T20:54:37.373Z,96740.19
2022-12-31T20:56:40.404Z,96735.94
2022-12-31T20:58:42.009Z,96747.00
2022-12-31T21:00:52.217Z,96730.72
2022-12-31T21:03:00.665Z,96744.31
2022-12-31T21:05:10.623Z,96749.22
2022-12-31T21:07:12.659Z,96748.22
2022-12-31T21:09:14.397Z,96751.41
2022-12-31T21:11:34.684Z,96750.19
2022-12-31T21:13:36.470Z,96745.84
2022-12-31T21:15:38.079Z,96753.78
2022-12-31T21:17:39.927Z,96759.13
2022-12-31T21:19:41.593Z,96748.47
2022-12-31T21:21:43.245Z,96760.22
2022-12-31T21:23:45.101Z,96766.50
2022-12-31T21:25:49.931Z,96766.72
2022-12-31T21:27:51.632Z,96771.41
2022-12-31T21:30:17.722Z,96775.22
2022-12-31T21:32:14.823Z,96765.84
2022-12-31T21:34:16.488Z,96757.25
2022-12-31T21:36:18.141Z,96766.84
2022-12-31T21:38:20.297Z,96770.31
2022-12-31T21:40:21.940Z,96770.78
2022-12-31T21:42:23.900Z,96767.47
2022-12-31T21:44:26.375Z,96763.69
2022-12-31T21:46:28.786Z,96764.56
2022-12-31T21:48:30.841Z,96775.53
2022-12-31T21:50:33.447Z,96777.72
2022-12-31T21:52:35.418Z,96783.59
2022-12-31T21:54:55.489Z,96775.84
2022-12-31T21:56:57.796Z,96779.13
2022-12-31T21:59:18.032Z,96775.63
2022-12-31T22:01:40.784Z,96783.41
2022-12-31T22:03:43.754Z,96772.66
2022-12-31T22:05:51.556Z,96785.06
2022-12-31T22:07:53.121Z,96775.75
2022-12-31T22:09:54.703Z,96781.41
2022-12-31T22:11:56.676Z,96781.94
2022-12-31T22:13:58.707Z,96790.97
2022-12-31T22:16:05.397Z,96779.13
2022-12-31T22:18:07.488Z,96779.69
2022-12-31T22:20:26.979Z,96789.34
2022-12-31T22:22:29.339Z,96784.13
2022-12-31T22:24:30.995Z,96789.78
2022-12-31T22:26:32.905Z,96803.16
2022-12-31T22:28:38.587Z,96802.06
2022-12-31T22:30:41.215Z,96801.63
2022-12-31T22:32:42.991Z,96806.97
2022-12-31T22:34:44.649Z,96807.47
2022-12-31T22:36:46.630Z,96804.16
2022-12-31T22:38:49.882Z,96806.09
2022-12-31T22:40:51.863Z,96822.53
2022-12-31T22:42:55.229Z,96809.59
2022-12-31T22:44:56.854Z,96816.84
2022-12-31T22:46:58.535Z,96811.31
2022-12-31T22:49:01.574Z,96820.88
2022-12-31T22:51:03.611Z,96826.44
2022-12-31T22:53:05.144Z,96828.28
2022-12-31T22:55:07.809Z,96830.09
2022-12-31T22:57:13.380Z,96821.41
2022-12-31T22:59:19.461Z,96823.38
2022-12-31T23:01:24.069Z,96826.97
2022-12-31T23:03:25.783Z,96830.34
2022-12-31T23:05:27.486Z,96822.38
2022-12-31T23:07:29.069Z,96823.19
2022-12-31T23:09:49.127Z,96819.94
2022-12-31T23:11:50.878Z,96827.59
2022-12-31T23:14:10.910Z,96822.66
2022-12-31T23:16:31.216Z,96826.03
2022-12-31T23:18:51.631Z,96818.81
2022-12-31T23:21:12.144Z,96823.28
2022-12-31T23:23:15.701Z,96822.63
2022-12-31T23:25:17.406Z,96828.47
2022-12-31T23:27:19.089Z,96833.22
2022-12-31T23:29:20.749Z,96828.81
2022-12-31T23:31:22.742Z,96826.88
2022-12-31T23:33:26.025Z,96827.97
2022-12-31T23:35:27.923Z,96832.41
2022-12-31T23:37:29.693Z,96826.66
2022-12-31T23:39:31.606Z,96838.16
2022-12-31T23:41:33.312Z,96834.56
2022-12-31T23:43:34.873Z,96844.72
2022-12-31T23:45:36.549Z,96846.09
2022-12-31T23:47:38.192Z,96845.41
2022-12-31T23:49:40.002Z,96841.16
2022-12-31T23:51:41.688Z,96848.06
2022-12-31T23:53:43.298Z,96842.06
2022-12-31T23:55:45.184Z,96843.13
2022-12-31T23:57:46.796Z,96845.78
2022-12-31T23:59:48.461Z,96845.50
